sensor_id;sensor_type;location;lat;lon;timestamp;temperature;humidity
20158;DHT22;10239;56.820;24.416;2023-04-09T00:01:43;4.40;99.90
20158;DHT22;10239;56.820;24.416;2023-04-09T00:04:11;4.40;99.90
20158;DHT22;10239;56.820;24.416;2023-04-09T00:06:39;4.40;99.90
20158;DHT22;10239;56.820;24.416;2023-04-09T00:09:07;4.40;99.90
20158;DHT22;10239;56.820;24.416;2023-04-09T00:11:34;4.40;99.90
20158;DHT22;10239;56.820;24.416;2023-04-09T00:14:02;4.40;99.90
20158;DHT22;10239;56.820;24.416;2023-04-09T00:16:30;4.40;99.90
20158;DHT22;10239;56.820;24.416;2023-04-09T00:18:57;4.40;99.90
20158;DHT22;10239;56.820;24.416;2023-04-09T00:21:24;4.40;99.90
20158;DHT22;10239;56.820;24.416;2023-04-09T00:23:53;4.20;99.90
20158;DHT22;10239;56.820;24.416;2023-04-09T00:26:21;4.30;99.90
20158;DHT22;10239;56.820;24.416;2023-04-09T00:28:48;4.40;99.90
20158;DHT22;10239;56.820;24.416;2023-04-09T00:31:16;4.30;99.90
20158;DHT22;10239;56.820;24.416;2023-04-09T00:33:47;4.30;99.90
20158;DHT22;10239;56.820;24.416;2023-04-09T00:36:14;4.30;99.90
20158;DHT22;10239;56.820;24.416;2023-04-09T00:38:42;4.30;99.90
20158;DHT22;10239;56.820;24.416;2023-04-09T00:41:09;4.30;99.90
20158;DHT22;10239;56.820;24.416;2023-04-09T00:43:37;4.30;99.90
20158;DHT22;10239;56.820;24.416;2023-04-09T00:46:04;4.30;99.90
20158;DHT22;10239;56.820;24.416;2023-04-09T00:48:32;4.30;99.90
20158;DHT22;10239;56.820;24.416;2023-04-09T00:51:00;4.20;99.90
20158;DHT22;10239;56.820;24.416;2023-04-09T00:53:27;4.20;99.90
20158;DHT22;10239;56.820;24.416;2023-04-09T00:55:55;4.10;99.90
20158;DHT22;10239;56.820;24.416;2023-04-09T00:58:24;4.00;99.90
20158;DHT22;10239;56.820;24.416;2023-04-09T01:00:52;4.00;99.90
20158;DHT22;10239;56.820;24.416;2023-04-09T01:03:19;4.00;99.90
20158;DHT22;10239;56.820;24.416;2023-04-09T01:06:02;4.00;99.90
20158;DHT22;10239;56.820;24.416;2023-04-09T01:08:40;4.00;99.90
20158;DHT22;10239;56.820;24.416;2023-04-09T01:14:31;4.00;99.90
20158;DHT22;10239;56.820;24.416;2023-04-09T01:17:16;3.90;99.90
20158;DHT22;10239;56.820;24.416;2023-04-09T01:20:51;3.90;99.90
20158;DHT22;10239;56.820;24.416;2023-04-09T01:28:31;3.60;99.90
20158;DHT22;10239;56.820;24.416;2023-04-09T01:31:03;3.60;99.90
20158;DHT22;10239;56.820;24.416;2023-04-09T01:33:34;3.60;99.90
20158;DHT22;10239;56.820;24.416;2023-04-09T01:36:06;3.70;99.90
20158;DHT22;10239;56.820;24.416;2023-04-09T01:38:40;3.70;99.90
20158;DHT22;10239;56.820;24.416;2023-04-09T01:41:14;3.60;99.90
20158;DHT22;10239;56.820;24.416;2023-04-09T01:43:44;3.50;99.90
20158;DHT22;10239;56.820;24.416;2023-04-09T01:46:12;3.60;99.90
20158;DHT22;10239;56.820;24.416;2023-04-09T01:48:41;3.60;99.90
20158;DHT22;10239;56.820;24.416;2023-04-09T01:51:10;3.50;99.90
20158;DHT22;10239;56.820;24.416;2023-04-09T01:53:43;3.40;99.90
20158;DHT22;10239;56.820;24.416;2023-04-09T01:56:11;3.20;99.90
20158;DHT22;10239;56.820;24.416;2023-04-09T01:58:39;3.30;99.90
20158;DHT22;10239;56.820;24.416;2023-04-09T02:01:49;3.20;99.90
20158;DHT22;10239;56.820;24.416;2023-04-09T02:04:22;3.20;99.90
20158;DHT22;10239;56.820;24.416;2023-04-09T02:07:04;3.20;99.90
20158;DHT22;10239;56.820;24.416;2023-04-09T02:09:35;3.30;99.90
20158;DHT22;10239;56.820;24.416;2023-04-09T02:12:05;3.50;99.90
20158;DHT22;10239;56.820;24.416;2023-04-09T02:14:34;3.50;99.90
20158;DHT22;10239;56.820;24.416;2023-04-09T02:17:04;3.50;99.90
20158;DHT22;10239;56.820;24.416;2023-04-09T02:19:45;3.50;99.90
20158;DHT22;10239;56.820;24.416;2023-04-09T02:22:14;3.40;99.90
20158;DHT22;10239;56.820;24.416;2023-04-09T02:24:43;3.30;99.90
20158;DHT22;10239;56.820;24.416;2023-04-09T02:27:12;3.20;99.90
20158;DHT22;10239;56.820;24.416;2023-04-09T02:29:40;3.20;99.90
20158;DHT22;10239;56.820;24.416;2023-04-09T02:32:08;3.10;99.90
20158;DHT22;10239;56.820;24.416;2023-04-09T02:34:35;3.10;99.90
20158;DHT22;10239;56.820;24.416;2023-04-09T02:37:03;3.10;99.90
20158;DHT22;10239;56.820;24.416;2023-04-09T02:39:30;3.20;99.90
20158;DHT22;10239;56.820;24.416;2023-04-09T02:41:58;3.20;99.90
20158;DHT22;10239;56.820;24.416;2023-04-09T02:44:26;3.20;99.90
20158;DHT22;10239;56.820;24.416;2023-04-09T02:46:54;3.30;99.90
20158;DHT22;10239;56.820;24.416;2023-04-09T02:49:22;3.20;99.90
20158;DHT22;10239;56.820;24.416;2023-04-09T02:51:50;3.00;99.90
20158;DHT22;10239;56.820;24.416;2023-04-09T02:54:17;2.90;99.90
20158;DHT22;10239;56.820;24.416;2023-04-09T02:56:45;2.90;99.90
20158;DHT22;10239;56.820;24.416;2023-04-09T02:59:12;3.00;99.90
20158;DHT22;10239;56.820;24.416;2023-04-09T03:01:40;3.00;99.90
20158;DHT22;10239;56.820;24.416;2023-04-09T03:04:08;3.00;99.90
20158;DHT22;10239;56.820;24.416;2023-04-09T03:06:35;2.90;99.90
20158;DHT22;10239;56.820;24.416;2023-04-09T03:09:03;3.00;99.90
20158;DHT22;10239;56.820;24.416;2023-04-09T03:11:30;2.90;99.90
20158;DHT22;10239;56.820;24.416;2023-04-09T03:13:58;3.00;99.90
20158;DHT22;10239;56.820;24.416;2023-04-09T03:16:25;3.10;99.90
20158;DHT22;10239;56.820;24.416;2023-04-09T03:18:53;3.20;99.90
20158;DHT22;10239;56.820;24.416;2023-04-09T03:21:20;3.20;99.90
20158;DHT22;10239;56.820;24.416;2023-04-09T03:23:49;3.10;99.90
20158;DHT22;10239;56.820;24.416;2023-04-09T03:26:17;2.90;99.90
20158;DHT22;10239;56.820;24.416;2023-04-09T03:28:47;2.90;99.90
20158;DHT22;10239;56.820;24.416;2023-04-09T03:31:16;2.90;99.90
20158;DHT22;10239;56.820;24.416;2023-04-09T03:33:45;3.00;99.90
20158;DHT22;10239;56.820;24.416;2023-04-09T03:36:13;3.10;99.90
20158;DHT22;10239;56.820;24.416;2023-04-09T03:39:00;3.10;99.90
20158;DHT22;10239;56.820;24.416;2023-04-09T03:41:37;3.00;99.90
20158;DHT22;10239;56.820;24.416;2023-04-09T03:44:09;3.00;99.90
20158;DHT22;10239;56.820;24.416;2023-04-09T03:46:57;3.00;99.90
20158;DHT22;10239;56.820;24.416;2023-04-09T03:49:25;3.10;99.90
20158;DHT22;10239;56.820;24.416;2023-04-09T03:51:56;3.00;99.90
20158;DHT22;10239;56.820;24.416;2023-04-09T03:54:31;3.10;99.90
20158;DHT22;10239;56.820;24.416;2023-04-09T03:57:00;3.10;99.90
20158;DHT22;10239;56.820;24.416;2023-04-09T03:59:28;3.10;99.90
20158;DHT22;10239;56.820;24.416;2023-04-09T04:01:55;3.20;99.90
20158;DHT22;10239;56.820;24.416;2023-04-09T04:04:24;3.10;99.90
20158;DHT22;10239;56.820;24.416;2023-04-09T04:06:55;3.10;99.90
20158;DHT22;10239;56.820;24.416;2023-04-09T04:09:29;3.20;99.90
20158;DHT22;10239;56.820;24.416;2023-04-09T04:12:07;3.30;99.90
20158;DHT22;10239;56.820;24.416;2023-04-09T04:15:00;3.30;99.90
20158;DHT22;10239;56.820;24.416;2023-04-09T04:17:34;3.40;99.90
20158;DHT22;10239;56.820;24.416;2023-04-09T04:20:05;3.50;99.90
20158;DHT22;10239;56.820;24.416;2023-04-09T04:22:39;3.50;99.90
20158;DHT22;10239;56.820;24.416;2023-04-09T04:25:07;3.60;99.90
20158;DHT22;10239;56.820;24.416;2023-04-09T04:27:35;3.80;99.90
20158;DHT22;10239;56.820;24.416;2023-04-09T04:30:03;4.00;99.90
20158;DHT22;10239;56.820;24.416;2023-04-09T04:32:50;4.20;99.90
20158;DHT22;10239;56.820;24.416;2023-04-09T04:35:18;4.40;99.90
20158;DHT22;10239;56.820;24.416;2023-04-09T04:37:48;4.50;99.90
20158;DHT22;10239;56.820;24.416;2023-04-09T04:40:17;4.60;99.90
20158;DHT22;10239;56.820;24.416;2023-04-09T04:42:46;4.70;99.90
20158;DHT22;10239;56.820;24.416;2023-04-09T04:45:15;4.90;99.90
20158;DHT22;10239;56.820;24.416;2023-04-09T04:47:47;5.00;99.90
20158;DHT22;10239;56.820;24.416;2023-04-09T04:50:16;5.30;99.90
20158;DHT22;10239;56.820;24.416;2023-04-09T04:52:57;5.40;99.90
20158;DHT22;10239;56.820;24.416;2023-04-09T04:55:30;5.70;99.90
20158;DHT22;10239;56.820;24.416;2023-04-09T04:58:00;6.90;99.90
20158;DHT22;10239;56.820;24.416;2023-04-09T05:00:35;8.60;99.90
20158;DHT22;10239;56.820;24.416;2023-04-09T05:03:03;10.30;99.90
20158;DHT22;10239;56.820;24.416;2023-04-09T05:05:52;11.80;99.90
20158;DHT22;10239;56.820;24.416;2023-04-09T05:08:21;13.10;99.90
20158;DHT22;10239;56.820;24.416;2023-04-09T05:10:51;13.60;99.90
20158;DHT22;10239;56.820;24.416;2023-04-09T05:13:29;13.60;99.90
20158;DHT22;10239;56.820;24.416;2023-04-09T05:15:57;14.00;99.90
20158;DHT22;10239;56.820;24.416;2023-04-09T05:18:25;14.60;99.90
20158;DHT22;10239;56.820;24.416;2023-04-09T05:20:55;15.60;99.90
20158;DHT22;10239;56.820;24.416;2023-04-09T05:23:25;16.60;99.90
20158;DHT22;10239;56.820;24.416;2023-04-09T05:25:52;17.30;99.90
20158;DHT22;10239;56.820;24.416;2023-04-09T05:28:27;18.00;99.90
20158;DHT22;10239;56.820;24.416;2023-04-09T05:31:04;18.10;99.90
20158;DHT22;10239;56.820;24.416;2023-04-09T05:33:44;18.20;99.70
20158;DHT22;10239;56.820;24.416;2023-04-09T05:36:18;18.10;99.50
20158;DHT22;10239;56.820;24.416;2023-04-09T05:38:46;17.90;99.90
20158;DHT22;10239;56.820;24.416;2023-04-09T05:41:14;19.20;99.10
20158;DHT22;10239;56.820;24.416;2023-04-09T05:43:58;19.70;95.60
20158;DHT22;10239;56.820;24.416;2023-04-09T05:46:28;19.70;94.20
20158;DHT22;10239;56.820;24.416;2023-04-09T05:48:55;20.00;93.20
20158;DHT22;10239;56.820;24.416;2023-04-09T05:51:25;19.60;93.00
20158;DHT22;10239;56.820;24.416;2023-04-09T05:53:54;20.70;91.30
20158;DHT22;10239;56.820;24.416;2023-04-09T05:56:21;20.50;90.40
20158;DHT22;10239;56.820;24.416;2023-04-09T05:58:53;20.50;90.80
20158;DHT22;10239;56.820;24.416;2023-04-09T06:01:21;20.70;90.10
20158;DHT22;10239;56.820;24.416;2023-04-09T06:03:49;20.70;90.90
20158;DHT22;10239;56.820;24.416;2023-04-09T06:06:17;21.70;88.60
20158;DHT22;10239;56.820;24.416;2023-04-09T06:08:44;21.70;88.00
20158;DHT22;10239;56.820;24.416;2023-04-09T06:11:12;21.20;87.90
20158;DHT22;10239;56.820;24.416;2023-04-09T06:13:39;21.60;87.40
20158;DHT22;10239;56.820;24.416;2023-04-09T06:16:08;22.70;85.70
20158;DHT22;10239;56.820;24.416;2023-04-09T06:18:36;23.20;83.20
20158;DHT22;10239;56.820;24.416;2023-04-09T06:21:07;23.00;80.70
20158;DHT22;10239;56.820;24.416;2023-04-09T06:23:36;22.90;79.10
20158;DHT22;10239;56.820;24.416;2023-04-09T06:26:03;22.80;79.40
20158;DHT22;10239;56.820;24.416;2023-04-09T06:28:31;23.10;80.70
20158;DHT22;10239;56.820;24.416;2023-04-09T06:30:58;23.10;78.60
20158;DHT22;10239;56.820;24.416;2023-04-09T06:33:26;23.30;76.40
20158;DHT22;10239;56.820;24.416;2023-04-09T06:35:54;23.50;76.60
20158;DHT22;10239;56.820;24.416;2023-04-09T06:38:22;23.50;75.50
20158;DHT22;10239;56.820;24.416;2023-04-09T06:40:49;23.60;76.40
20158;DHT22;10239;56.820;24.416;2023-04-09T06:43:18;23.80;74.80
20158;DHT22;10239;56.820;24.416;2023-04-09T06:45:50;23.90;74.60
20158;DHT22;10239;56.820;24.416;2023-04-09T06:48:17;23.90;74.50
20158;DHT22;10239;56.820;24.416;2023-04-09T06:50:45;24.20;73.30
20158;DHT22;10239;56.820;24.416;2023-04-09T06:53:13;24.40;73.70
20158;DHT22;10239;56.820;24.416;2023-04-09T06:55:41;25.20;72.60
20158;DHT22;10239;56.820;24.416;2023-04-09T06:58:09;25.40;73.60
20158;DHT22;10239;56.820;24.416;2023-04-09T07:00:37;25.20;70.30
20158;DHT22;10239;56.820;24.416;2023-04-09T07:03:05;25.70;69.70
20158;DHT22;10239;56.820;24.416;2023-04-09T07:05:35;26.10;68.00
20158;DHT22;10239;56.820;24.416;2023-04-09T07:08:03;26.00;68.70
20158;DHT22;10239;56.820;24.416;2023-04-09T07:10:31;25.90;66.40
20158;DHT22;10239;56.820;24.416;2023-04-09T07:12:59;25.70;67.90
20158;DHT22;10239;56.820;24.416;2023-04-09T07:15:27;26.20;66.70
20158;DHT22;10239;56.820;24.416;2023-04-09T07:17:54;25.20;66.70
20158;DHT22;10239;56.820;24.416;2023-04-09T07:20:24;26.10;66.30
20158;DHT22;10239;56.820;24.416;2023-04-09T07:22:51;25.00;66.50
20158;DHT22;10239;56.820;24.416;2023-04-09T07:25:19;25.80;65.00
20158;DHT22;10239;56.820;24.416;2023-04-09T07:27:47;25.90;64.50
20158;DHT22;10239;56.820;24.416;2023-04-09T07:30:16;26.30;62.50
20158;DHT22;10239;56.820;24.416;2023-04-09T07:32:44;26.20;62.20
20158;DHT22;10239;56.820;24.416;2023-04-09T07:35:12;26.50;63.20
20158;DHT22;10239;56.820;24.416;2023-04-09T07:37:40;26.60;62.20
20158;DHT22;10239;56.820;24.416;2023-04-09T07:40:08;27.00;60.40
20158;DHT22;10239;56.820;24.416;2023-04-09T07:42:37;26.80;60.20
20158;DHT22;10239;56.820;24.416;2023-04-09T07:45:05;26.60;60.50
20158;DHT22;10239;56.820;24.416;2023-04-09T07:47:33;26.20;60.40
20158;DHT22;10239;56.820;24.416;2023-04-09T07:50:01;26.00;61.20
20158;DHT22;10239;56.820;24.416;2023-04-09T07:52:29;24.60;63.50
20158;DHT22;10239;56.820;24.416;2023-04-09T07:54:57;24.30;63.00
20158;DHT22;10239;56.820;24.416;2023-04-09T07:57:24;23.80;65.10
20158;DHT22;10239;56.820;24.416;2023-04-09T07:59:52;23.00;62.60
20158;DHT22;10239;56.820;24.416;2023-04-09T08:02:20;22.70;64.50
20158;DHT22;10239;56.820;24.416;2023-04-09T08:04:49;22.20;65.00
20158;DHT22;10239;56.820;24.416;2023-04-09T08:07:17;21.80;67.40
20158;DHT22;10239;56.820;24.416;2023-04-09T08:09:45;23.00;65.40
20158;DHT22;10239;56.820;24.416;2023-04-09T08:12:12;23.70;63.80
20158;DHT22;10239;56.820;24.416;2023-04-09T08:14:40;24.00;62.30
20158;DHT22;10239;56.820;24.416;2023-04-09T08:17:08;23.80;62.90
20158;DHT22;10239;56.820;24.416;2023-04-09T08:19:36;24.80;62.10
20158;DHT22;10239;56.820;24.416;2023-04-09T08:22:07;25.10;61.60
20158;DHT22;10239;56.820;24.416;2023-04-09T08:24:35;25.50;59.50
20158;DHT22;10239;56.820;24.416;2023-04-09T08:27:03;24.60;60.00
20158;DHT22;10239;56.820;24.416;2023-04-09T08:29:31;25.30;61.20
20158;DHT22;10239;56.820;24.416;2023-04-09T08:31:58;26.50;62.60
20158;DHT22;10239;56.820;24.416;2023-04-09T08:34:26;26.00;59.60
20158;DHT22;10239;56.820;24.416;2023-04-09T08:36:55;26.30;59.90
20158;DHT22;10239;56.820;24.416;2023-04-09T08:39:23;25.90;60.50
20158;DHT22;10239;56.820;24.416;2023-04-09T08:41:52;27.30;57.20
20158;DHT22;10239;56.820;24.416;2023-04-09T08:44:19;26.30;57.40
20158;DHT22;10239;56.820;24.416;2023-04-09T08:46:48;26.30;57.90
20158;DHT22;10239;56.820;24.416;2023-04-09T08:49:16;25.90;57.70
20158;DHT22;10239;56.820;24.416;2023-04-09T08:51:47;25.70;58.00
20158;DHT22;10239;56.820;24.416;2023-04-09T08:54:16;26.30;57.30
20158;DHT22;10239;56.820;24.416;2023-04-09T08:56:46;26.60;57.00
20158;DHT22;10239;56.820;24.416;2023-04-09T08:59:15;26.60;58.40
20158;DHT22;10239;56.820;24.416;2023-04-09T09:01:45;27.20;56.20
20158;DHT22;10239;56.820;24.416;2023-04-09T09:04:15;26.60;57.60
20158;DHT22;10239;56.820;24.416;2023-04-09T09:06:43;27.20;58.40
20158;DHT22;10239;56.820;24.416;2023-04-09T09:09:14;27.60;55.60
20158;DHT22;10239;56.820;24.416;2023-04-09T09:11:47;27.10;56.80
20158;DHT22;10239;56.820;24.416;2023-04-09T09:14:18;26.80;57.00
20158;DHT22;10239;56.820;24.416;2023-04-09T09:21:56;26.40;55.60
20158;DHT22;10239;56.820;24.416;2023-04-09T09:24:24;26.30;57.10
20158;DHT22;10239;56.820;24.416;2023-04-09T09:26:52;26.60;54.80
20158;DHT22;10239;56.820;24.416;2023-04-09T09:29:20;26.30;55.50
20158;DHT22;10239;56.820;24.416;2023-04-09T09:31:50;25.90;56.40
20158;DHT22;10239;56.820;24.416;2023-04-09T09:34:19;24.20;56.60
20158;DHT22;10239;56.820;24.416;2023-04-09T09:36:47;25.50;56.50
20158;DHT22;10239;56.820;24.416;2023-04-09T09:39:16;25.00;58.30
20158;DHT22;10239;56.820;24.416;2023-04-09T09:41:45;26.20;56.40
20158;DHT22;10239;56.820;24.416;2023-04-09T09:44:30;26.00;55.10
20158;DHT22;10239;56.820;24.416;2023-04-09T09:46:58;25.80;55.50
20158;DHT22;10239;56.820;24.416;2023-04-09T09:49:27;25.60;55.40
20158;DHT22;10239;56.820;24.416;2023-04-09T09:51:58;25.40;56.60
20158;DHT22;10239;56.820;24.416;2023-04-09T09:54:28;25.30;55.60
20158;DHT22;10239;56.820;24.416;2023-04-09T09:57:03;25.10;59.00
20158;DHT22;10239;56.820;24.416;2023-04-09T09:59:36;25.50;55.50
20158;DHT22;10239;56.820;24.416;2023-04-09T10:02:04;24.90;56.20
20158;DHT22;10239;56.820;24.416;2023-04-09T10:04:34;25.20;57.00
20158;DHT22;10239;56.820;24.416;2023-04-09T10:07:04;25.40;57.10
20158;DHT22;10239;56.820;24.416;2023-04-09T10:09:34;25.40;56.20
20158;DHT22;10239;56.820;24.416;2023-04-09T10:12:06;25.60;57.60
20158;DHT22;10239;56.820;24.416;2023-04-09T10:14:35;25.70;55.00
20158;DHT22;10239;56.820;24.416;2023-04-09T10:17:03;25.50;56.50
20158;DHT22;10239;56.820;24.416;2023-04-09T10:19:37;25.00;56.70
20158;DHT22;10239;56.820;24.416;2023-04-09T10:22:10;24.90;55.90
20158;DHT22;10239;56.820;24.416;2023-04-09T10:24:39;24.60;57.90
20158;DHT22;10239;56.820;24.416;2023-04-09T10:27:15;25.10;55.70
20158;DHT22;10239;56.820;24.416;2023-04-09T10:29:45;24.60;58.90
20158;DHT22;10239;56.820;24.416;2023-04-09T10:32:21;24.90;57.00
20158;DHT22;10239;56.820;24.416;2023-04-09T10:34:50;23.70;59.10
20158;DHT22;10239;56.820;24.416;2023-04-09T10:37:25;24.30;62.00
20158;DHT22;10239;56.820;24.416;2023-04-09T10:39:53;24.90;62.20
20158;DHT22;10239;56.820;24.416;2023-04-09T10:42:38;25.20;56.10
20158;DHT22;10239;56.820;24.416;2023-04-09T10:45:09;25.10;55.10
20158;DHT22;10239;56.820;24.416;2023-04-09T10:47:40;24.90;60.50
20158;DHT22;10239;56.820;24.416;2023-04-09T10:50:25;24.60;55.70
20158;DHT22;10239;56.820;24.416;2023-04-09T10:52:55;24.50;56.70
20158;DHT22;10239;56.820;24.416;2023-04-09T10:55:38;24.80;58.60
20158;DHT22;10239;56.820;24.416;2023-04-09T10:58:08;24.90;57.00
20158;DHT22;10239;56.820;24.416;2023-04-09T11:00:41;24.70;59.90
20158;DHT22;10239;56.820;24.416;2023-04-09T11:03:28;24.60;58.50
20158;DHT22;10239;56.820;24.416;2023-04-09T11:06:03;24.70;60.20
20158;DHT22;10239;56.820;24.416;2023-04-09T11:08:37;25.20;59.30
20158;DHT22;10239;56.820;24.416;2023-04-09T11:11:05;25.20;56.60
20158;DHT22;10239;56.820;24.416;2023-04-09T11:13:33;24.80;57.80
20158;DHT22;10239;56.820;24.416;2023-04-09T11:16:00;24.40;55.40
20158;DHT22;10239;56.820;24.416;2023-04-09T11:18:33;23.80;61.50
20158;DHT22;10239;56.820;24.416;2023-04-09T11:21:03;24.00;62.00
20158;DHT22;10239;56.820;24.416;2023-04-09T11:23:31;24.10;59.20
20158;DHT22;10239;56.820;24.416;2023-04-09T11:25:59;24.60;60.00
20158;DHT22;10239;56.820;24.416;2023-04-09T11:28:28;24.90;62.40
20158;DHT22;10239;56.820;24.416;2023-04-09T11:30:56;25.10;60.20
20158;DHT22;10239;56.820;24.416;2023-04-09T11:33:31;24.60;57.90
20158;DHT22;10239;56.820;24.416;2023-04-09T11:35:59;24.30;59.40
20158;DHT22;10239;56.820;24.416;2023-04-09T11:38:30;24.20;61.50
20158;DHT22;10239;56.820;24.416;2023-04-09T11:40:57;24.30;59.30
20158;DHT22;10239;56.820;24.416;2023-04-09T11:43:25;24.20;59.40
20158;DHT22;10239;56.820;24.416;2023-04-09T11:45:52;23.70;59.30
20158;DHT22;10239;56.820;24.416;2023-04-09T11:48:23;23.60;57.00
20158;DHT22;10239;56.820;24.416;2023-04-09T11:50:51;23.30;58.50
20158;DHT22;10239;56.820;24.416;2023-04-09T11:53:19;23.00;59.30
20158;DHT22;10239;56.820;24.416;2023-04-09T11:55:51;22.90;59.70
20158;DHT22;10239;56.820;24.416;2023-04-09T11:58:24;22.80;59.80
20158;DHT22;10239;56.820;24.416;2023-04-09T12:00:54;22.60;60.40
20158;DHT22;10239;56.820;24.416;2023-04-09T12:03:30;22.30;61.10
20158;DHT22;10239;56.820;24.416;2023-04-09T12:06:05;21.60;60.20
20158;DHT22;10239;56.820;24.416;2023-04-09T12:08:36;21.20;61.60
20158;DHT22;10239;56.820;24.416;2023-04-09T12:11:30;21.00;63.20
20158;DHT22;10239;56.820;24.416;2023-04-09T12:14:01;20.90;60.50
20158;DHT22;10239;56.820;24.416;2023-04-09T12:16:33;20.60;61.30
20158;DHT22;10239;56.820;24.416;2023-04-09T12:19:08;20.50;62.90
20158;DHT22;10239;56.820;24.416;2023-04-09T12:21:53;20.40;62.30
20158;DHT22;10239;56.820;24.416;2023-04-09T12:24:23;20.30;63.90
20158;DHT22;10239;56.820;24.416;2023-04-09T12:26:51;20.20;63.20
20158;DHT22;10239;56.820;24.416;2023-04-09T12:29:20;20.20;65.30
20158;DHT22;10239;56.820;24.416;2023-04-09T12:31:47;20.20;62.90
20158;DHT22;10239;56.820;24.416;2023-04-09T12:34:15;20.50;64.30
20158;DHT22;10239;56.820;24.416;2023-04-09T12:36:42;20.60;64.70
20158;DHT22;10239;56.820;24.416;2023-04-09T12:39:10;21.00;65.80
20158;DHT22;10239;56.820;24.416;2023-04-09T12:41:38;21.40;62.60
20158;DHT22;10239;56.820;24.416;2023-04-09T12:44:05;21.30;63.50
20158;DHT22;10239;56.820;24.416;2023-04-09T12:46:33;21.20;64.40
20158;DHT22;10239;56.820;24.416;2023-04-09T12:49:01;21.10;63.40
20158;DHT22;10239;56.820;24.416;2023-04-09T12:51:29;20.90;63.00
20158;DHT22;10239;56.820;24.416;2023-04-09T12:53:57;20.90;63.90
20158;DHT22;10239;56.820;24.416;2023-04-09T12:56:24;20.90;65.60
20158;DHT22;10239;56.820;24.416;2023-04-09T12:58:55;21.00;64.20
20158;DHT22;10239;56.820;24.416;2023-04-09T13:01:23;21.00;64.80
20158;DHT22;10239;56.820;24.416;2023-04-09T13:03:50;20.70;65.40
20158;DHT22;10239;56.820;24.416;2023-04-09T13:06:19;20.60;65.60
20158;DHT22;10239;56.820;24.416;2023-04-09T13:08:48;20.40;66.10
20158;DHT22;10239;56.820;24.416;2023-04-09T13:11:16;20.30;66.70
20158;DHT22;10239;56.820;24.416;2023-04-09T13:13:43;20.30;68.40
20158;DHT22;10239;56.820;24.416;2023-04-09T13:16:11;20.30;67.90
20158;DHT22;10239;56.820;24.416;2023-04-09T13:18:38;20.20;68.90
20158;DHT22;10239;56.820;24.416;2023-04-09T13:21:07;20.10;69.40
20158;DHT22;10239;56.820;24.416;2023-04-09T13:23:34;19.90;70.00
20158;DHT22;10239;56.820;24.416;2023-04-09T13:26:02;19.70;70.00
20158;DHT22;10239;56.820;24.416;2023-04-09T13:28:30;19.70;69.80
20158;DHT22;10239;56.820;24.416;2023-04-09T13:30:58;19.70;71.50
20158;DHT22;10239;56.820;24.416;2023-04-09T13:33:25;19.70;70.30
20158;DHT22;10239;56.820;24.416;2023-04-09T13:35:53;19.60;70.20
20158;DHT22;10239;56.820;24.416;2023-04-09T13:38:21;19.60;70.30
20158;DHT22;10239;56.820;24.416;2023-04-09T13:40:48;19.40;69.80
20158;DHT22;10239;56.820;24.416;2023-04-09T13:43:16;19.10;70.90
20158;DHT22;10239;56.820;24.416;2023-04-09T13:45:44;19.10;71.60
20158;DHT22;10239;56.820;24.416;2023-04-09T13:48:11;18.90;70.40
20158;DHT22;10239;56.820;24.416;2023-04-09T13:50:41;18.70;70.30
20158;DHT22;10239;56.820;24.416;2023-04-09T13:53:09;18.50;71.00
20158;DHT22;10239;56.820;24.416;2023-04-09T13:55:38;18.60;72.00
20158;DHT22;10239;56.820;24.416;2023-04-09T13:58:05;18.60;71.60
20158;DHT22;10239;56.820;24.416;2023-04-09T14:00:34;18.40;72.30
20158;DHT22;10239;56.820;24.416;2023-04-09T14:03:03;18.30;71.80
20158;DHT22;10239;56.820;24.416;2023-04-09T14:05:31;18.30;72.10
20158;DHT22;10239;56.820;24.416;2023-04-09T14:08:02;18.20;72.60
20158;DHT22;10239;56.820;24.416;2023-04-09T14:10:29;18.10;72.50
20158;DHT22;10239;56.820;24.416;2023-04-09T14:12:57;18.10;72.40
20158;DHT22;10239;56.820;24.416;2023-04-09T14:15:25;18.00;73.10
20158;DHT22;10239;56.820;24.416;2023-04-09T14:17:53;17.90;73.40
20158;DHT22;10239;56.820;24.416;2023-04-09T14:20:20;17.80;72.70
20158;DHT22;10239;56.820;24.416;2023-04-09T14:22:50;17.80;73.00
20158;DHT22;10239;56.820;24.416;2023-04-09T14:25:18;17.60;72.80
20158;DHT22;10239;56.820;24.416;2023-04-09T14:27:46;17.50;73.10
20158;DHT22;10239;56.820;24.416;2023-04-09T14:30:13;17.40;73.80
20158;DHT22;10239;56.820;24.416;2023-04-09T14:32:41;17.40;73.20
20158;DHT22;10239;56.820;24.416;2023-04-09T14:35:09;17.20;74.70
20158;DHT22;10239;56.820;24.416;2023-04-09T14:37:37;17.20;74.00
20158;DHT22;10239;56.820;24.416;2023-04-09T14:40:07;17.20;74.80
20158;DHT22;10239;56.820;24.416;2023-04-09T14:42:35;17.10;75.20
20158;DHT22;10239;56.820;24.416;2023-04-09T14:45:03;17.00;75.30
20158;DHT22;10239;56.820;24.416;2023-04-09T14:47:31;17.00;75.10
20158;DHT22;10239;56.820;24.416;2023-04-09T14:49:58;16.80;75.10
20158;DHT22;10239;56.820;24.416;2023-04-09T14:52:26;16.80;75.30
20158;DHT22;10239;56.820;24.416;2023-04-09T14:54:56;16.80;76.10
20158;DHT22;10239;56.820;24.416;2023-04-09T14:57:24;16.70;75.80
20158;DHT22;10239;56.820;24.416;2023-04-09T14:59:52;16.60;75.10
20158;DHT22;10239;56.820;24.416;2023-04-09T15:02:19;16.60;75.60
20158;DHT22;10239;56.820;24.416;2023-04-09T15:04:48;16.40;75.80
20158;DHT22;10239;56.820;24.416;2023-04-09T15:07:15;16.30;75.70
20158;DHT22;10239;56.820;24.416;2023-04-09T15:09:43;16.20;76.50
20158;DHT22;10239;56.820;24.416;2023-04-09T15:12:10;16.20;76.70
20158;DHT22;10239;56.820;24.416;2023-04-09T15:14:38;16.20;76.30
20158;DHT22;10239;56.820;24.416;2023-04-09T15:17:06;16.00;77.60
20158;DHT22;10239;56.820;24.416;2023-04-09T15:19:33;15.90;76.40
20158;DHT22;10239;56.820;24.416;2023-04-09T15:22:01;15.80;78.40
20158;DHT22;10239;56.820;24.416;2023-04-09T15:24:29;15.80;77.30
20158;DHT22;10239;56.820;24.416;2023-04-09T15:26:56;15.80;77.20
20158;DHT22;10239;56.820;24.416;2023-04-09T15:29:24;15.70;77.10
20158;DHT22;10239;56.820;24.416;2023-04-09T15:31:52;15.60;76.70
20158;DHT22;10239;56.820;24.416;2023-04-09T15:34:20;15.50;77.00
20158;DHT22;10239;56.820;24.416;2023-04-09T15:36:47;15.40;77.20
20158;DHT22;10239;56.820;24.416;2023-04-09T15:39:15;15.20;78.10
20158;DHT22;10239;56.820;24.416;2023-04-09T15:41:43;15.20;78.30
20158;DHT22;10239;56.820;24.416;2023-04-09T15:44:11;15.10;77.80
20158;DHT22;10239;56.820;24.416;2023-04-09T15:46:38;15.10;78.30
20158;DHT22;10239;56.820;24.416;2023-04-09T15:49:06;15.00;77.90
20158;DHT22;10239;56.820;24.416;2023-04-09T15:51:33;14.90;78.60